Metar Aviation Weather Data KPWM

59°F Temp
32°F Dewpoint
% Humidity
Temperature
14 MPH
23 KM/H
12 KTS
290°
West North
West

Wind Speed
Partly Cloudy
Conditions
Pressure 1020.02 (hPa) - 30.12 (in)
Visibility 10.0 (mi) - 16 (km)

Current Conditions
KPWM
Metar :KPWM 011451Z 29012G19KT 10SM FEW050 15/00 A3012 RMK AO2 SLP198 T01500000 58015
Mon 1st June 10:51 am

  Metar Aviation API Data Provided by https://www.checkwx.com/ PHP scripts by weather34.com ©2020